Lovilia, IA (50150)

7:13 AM CDT on April 19, 2015 (GMT -0500)
IADOT | | Change Station
CLOSE
Current Station
Personal Weather Station
Location: Eddyville, IA
Elevation: 799 ft
Nearby Weather Stations

Elev 799 ft 41.15 °N, 92.64 °W | Updated 22 minutes ago

Rain
Rain
57 °F
Feels Like 57 °F
N
1
Wind Variable Wind from SSE
Gusts 2.0 mph

Today
High -- | Low -- °F
--% Chance of Precip.
Yesterday
High -- | Low -- °F
Precip. -- in
6:26 AM 7:55 PM
New Moon, 1% visible
Pressure 29.74 in
Visibility 2.0 miles
Clouds Mostly Cloudy 3000 ft
Mostly Cloudy 4700 ft
Overcast 8000 ft
Dew Point 56 °F
Humidity 95%
Rainfall in
Snow Depth Not available.
UV 0 out of 12
Pollen 2.30 out of 12
Air Quality Not available.
Flu Activity Local Activity
METAR KOXV 191155Z AUTO 08004KT 2SM BR BKN030 BKN047 OVC080 13/13 A2974 RMK AO2

More Conditions Fewer Conditions

Pressure 29.74 in
Visibility 2.0 miles
Clouds Mostly Cloudy 3000 ft
Mostly Cloudy 4700 ft
Overcast 8000 ft
Dew Point 56 °F
Humidity 95%
Rainfall in
Snow Depth Not available.
UV 0 out of 12
Pollen 2.30 out of 12
Air Quality Not available.
Flu Activity Local Activity
METAR KOXV 191155Z AUTO 08004KT 2SM BR BKN030 BKN047 OVC080 13/13 A2974 RMK AO2

More Conditions Fewer Conditions

10-Day Weather Forecast

Almanac

Astronomy

Apr. 19, 2015 Rise Set
Actual Time
Civil Twilight
Nautical Twilight
Astronomical Twilight
Moon
Length of Visible Light
Length of Day
Tomorrow will be .
, % of the Moon is Illuminated

Today's Extremes

State Highs State Lows

Community

WunderPhotos

Upload Photos

1,814,760 photos uploaded!

WunderBlogs® & News

Nearby

Air Quality

  Air Quality AQ Index Pollutant
Not available.

Snow Depth

Station Depth Elevation

Earthquake Activity

City Distance Mag. Time & Date
Minimum magnitude displayed is 2.5.

Coastal Water Temperatures

Place Temperature

Stations

Nearby Weather Stations

Station Location Temp. Windchill Dew Point Humidity Wind Precip. Elev Updated Type